sensor_id;sensor_type;location;lat;lon;timestamp;P1;durP1;ratioP1;P2;durP2;ratioP2
8514;SDS011;4295;51.024;7.000;2022-09-24T00:01:30;82.00;;;9.90;;
8514;SDS011;4295;51.024;7.000;2022-09-24T00:03:59;86.93;;;9.90;;
8514;SDS011;4295;51.024;7.000;2022-09-24T00:06:26;80.70;;;11.27;;
8514;SDS011;4295;51.024;7.000;2022-09-24T00:08:54;81.20;;;9.80;;
8514;SDS011;4295;51.024;7.000;2022-09-24T00:11:21;81.50;;;10.60;;
8514;SDS011;4295;51.024;7.000;2022-09-24T00:13:48;80.53;;;9.87;;
8514;SDS011;4295;51.024;7.000;2022-09-24T00:16:15;79.37;;;9.50;;
8514;SDS011;4295;51.024;7.000;2022-09-24T00:18:42;79.90;;;9.50;;
8514;SDS011;4295;51.024;7.000;2022-09-24T00:21:14;81.77;;;9.63;;
8514;SDS011;4295;51.024;7.000;2022-09-24T00:23:41;85.13;;;9.73;;
8514;SDS011;4295;51.024;7.000;2022-09-24T00:26:08;81.33;;;9.67;;
8514;SDS011;4295;51.024;7.000;2022-09-24T00:28:53;79.33;;;9.20;;
8514;SDS011;4295;51.024;7.000;2022-09-24T00:31:18;81.50;;;9.53;;
8514;SDS011;4295;51.024;7.000;2022-09-24T00:33:43;78.87;;;9.00;;
8514;SDS011;4295;51.024;7.000;2022-09-24T00:36:09;78.63;;;9.10;;
8514;SDS011;4295;51.024;7.000;2022-09-24T00:38:34;81.17;;;10.20;;
8514;SDS011;4295;51.024;7.000;2022-09-24T00:41:00;81.57;;;10.53;;
8514;SDS011;4295;51.024;7.000;2022-09-24T00:45:51;83.60;;;10.87;;
8514;SDS011;4295;51.024;7.000;2022-09-24T00:48:38;82.47;;;10.33;;
8514;SDS011;4295;51.024;7.000;2022-09-24T00:51:05;81.10;;;9.97;;
8514;SDS011;4295;51.024;7.000;2022-09-24T00:53:33;80.10;;;9.30;;
8514;SDS011;4295;51.024;7.000;2022-09-24T00:56:01;85.87;;;9.77;;
8514;SDS011;4295;51.024;7.000;2022-09-24T00:58:28;80.77;;;10.27;;
8514;SDS011;4295;51.024;7.000;2022-09-24T01:00:58;80.47;;;10.23;;
8514;SDS011;4295;51.024;7.000;2022-09-24T01:03:27;84.20;;;9.80;;
8514;SDS011;4295;51.024;7.000;2022-09-24T01:05:56;80.30;;;10.50;;
8514;SDS011;4295;51.024;7.000;2022-09-24T01:08:22;80.80;;;10.17;;
8514;SDS011;4295;51.024;7.000;2022-09-24T01:32:17;80.70;;;9.90;;
8514;SDS011;4295;51.024;7.000;2022-09-24T01:35:04;81.70;;;9.50;;
8514;SDS011;4295;51.024;7.000;2022-09-24T01:37:31;81.00;;;9.97;;
8514;SDS011;4295;51.024;7.000;2022-09-24T01:40:00;86.60;;;9.57;;
8514;SDS011;4295;51.024;7.000;2022-09-24T01:42:27;79.20;;;9.63;;
8514;SDS011;4295;51.024;7.000;2022-09-24T01:44:54;83.30;;;10.23;;
8514;SDS011;4295;51.024;7.000;2022-09-24T01:47:32;83.60;;;10.47;;
8514;SDS011;4295;51.024;7.000;2022-09-24T01:50:03;80.67;;;9.53;;
8514;SDS011;4295;51.024;7.000;2022-09-24T01:52:32;81.23;;;9.67;;
8514;SDS011;4295;51.024;7.000;2022-09-24T01:55:02;78.47;;;8.33;;
8514;SDS011;4295;51.024;7.000;2022-09-24T01:57:42;81.87;;;9.93;;
8514;SDS011;4295;51.024;7.000;2022-09-24T02:00:29;80.10;;;9.70;;
8514;SDS011;4295;51.024;7.000;2022-09-24T02:05:37;77.97;;;9.47;;
8514;SDS011;4295;51.024;7.000;2022-09-24T02:08:10;78.47;;;9.23;;
8514;SDS011;4295;51.024;7.000;2022-09-24T02:10:41;79.10;;;9.30;;
8514;SDS011;4295;51.024;7.000;2022-09-24T02:13:23;85.50;;;9.80;;
8514;SDS011;4295;51.024;7.000;2022-09-24T02:15:53;85.23;;;9.60;;
8514;SDS011;4295;51.024;7.000;2022-09-24T02:18:24;81.53;;;8.83;;
8514;SDS011;4295;51.024;7.000;2022-09-24T02:20:54;84.00;;;10.40;;
8514;SDS011;4295;51.024;7.000;2022-09-24T02:23:21;80.97;;;10.00;;
8514;SDS011;4295;51.024;7.000;2022-09-24T02:25:54;79.23;;;9.60;;
8514;SDS011;4295;51.024;7.000;2022-09-24T02:28:26;80.50;;;8.90;;
8514;SDS011;4295;51.024;7.000;2022-09-24T02:30:59;78.30;;;9.20;;
8514;SDS011;4295;51.024;7.000;2022-09-24T02:33:30;79.60;;;9.37;;
8514;SDS011;4295;51.024;7.000;2022-09-24T02:36:16;78.10;;;8.50;;
8514;SDS011;4295;51.024;7.000;2022-09-24T02:38:42;79.53;;;8.97;;
8514;SDS011;4295;51.024;7.000;2022-09-24T02:41:10;80.07;;;8.90;;
8514;SDS011;4295;51.024;7.000;2022-09-24T02:43:35;84.97;;;9.60;;
8514;SDS011;4295;51.024;7.000;2022-09-24T02:46:01;80.77;;;10.23;;
8514;SDS011;4295;51.024;7.000;2022-09-24T02:48:26;79.70;;;9.20;;
8514;SDS011;4295;51.024;7.000;2022-09-24T02:50:52;82.47;;;10.07;;
8514;SDS011;4295;51.024;7.000;2022-09-24T02:53:17;82.80;;;9.63;;
8514;SDS011;4295;51.024;7.000;2022-09-24T02:55:43;77.83;;;9.40;;
8514;SDS011;4295;51.024;7.000;2022-09-24T02:58:08;79.80;;;8.97;;
8514;SDS011;4295;51.024;7.000;2022-09-24T03:00:34;78.67;;;9.50;;
8514;SDS011;4295;51.024;7.000;2022-09-24T03:02:59;82.17;;;9.90;;
8514;SDS011;4295;51.024;7.000;2022-09-24T03:05:24;81.10;;;10.10;;
8514;SDS011;4295;51.024;7.000;2022-09-24T03:07:50;79.00;;;8.70;;
8514;SDS011;4295;51.024;7.000;2022-09-24T03:10:15;78.80;;;8.30;;
8514;SDS011;4295;51.024;7.000;2022-09-24T03:12:44;78.90;;;8.97;;
8514;SDS011;4295;51.024;7.000;2022-09-24T03:15:09;81.80;;;9.43;;
8514;SDS011;4295;51.024;7.000;2022-09-24T03:17:35;79.07;;;9.40;;
8514;SDS011;4295;51.024;7.000;2022-09-24T03:20:00;81.53;;;9.47;;
8514;SDS011;4295;51.024;7.000;2022-09-24T03:22:26;79.97;;;9.17;;
8514;SDS011;4295;51.024;7.000;2022-09-24T03:24:51;83.30;;;9.03;;
8514;SDS011;4295;51.024;7.000;2022-09-24T03:27:17;80.50;;;9.57;;
8514;SDS011;4295;51.024;7.000;2022-09-24T03:29:43;81.00;;;9.30;;
8514;SDS011;4295;51.024;7.000;2022-09-24T03:32:27;78.23;;;8.83;;
8514;SDS011;4295;51.024;7.000;2022-09-24T03:34:53;80.83;;;9.97;;
8514;SDS011;4295;51.024;7.000;2022-09-24T03:37:18;78.40;;;9.20;;
8514;SDS011;4295;51.024;7.000;2022-09-24T03:39:43;79.77;;;10.37;;
8514;SDS011;4295;51.024;7.000;2022-09-24T03:42:09;78.90;;;9.30;;
8514;SDS011;4295;51.024;7.000;2022-09-24T03:44:34;79.10;;;9.83;;
8514;SDS011;4295;51.024;7.000;2022-09-24T03:47:00;81.23;;;9.40;;
8514;SDS011;4295;51.024;7.000;2022-09-24T03:49:25;81.10;;;10.23;;
8514;SDS011;4295;51.024;7.000;2022-09-24T03:51:51;80.50;;;10.17;;
8514;SDS011;4295;51.024;7.000;2022-09-24T03:54:16;83.20;;;9.80;;
8514;SDS011;4295;51.024;7.000;2022-09-24T03:56:41;80.70;;;8.93;;
8514;SDS011;4295;51.024;7.000;2022-09-24T03:59:10;80.27;;;9.60;;
8514;SDS011;4295;51.024;7.000;2022-09-24T04:01:35;85.70;;;10.50;;
8514;SDS011;4295;51.024;7.000;2022-09-24T04:04:02;78.70;;;8.97;;
8514;SDS011;4295;51.024;7.000;2022-09-24T04:06:29;80.07;;;9.60;;
8514;SDS011;4295;51.024;7.000;2022-09-24T04:08:55;81.80;;;10.10;;
8514;SDS011;4295;51.024;7.000;2022-09-24T04:11:21;77.47;;;8.93;;
8514;SDS011;4295;51.024;7.000;2022-09-24T04:13:46;81.60;;;9.10;;
8514;SDS011;4295;51.024;7.000;2022-09-24T04:16:12;82.10;;;9.27;;
8514;SDS011;4295;51.024;7.000;2022-09-24T04:18:37;80.63;;;10.03;;
8514;SDS011;4295;51.024;7.000;2022-09-24T04:21:03;80.07;;;9.83;;
8514;SDS011;4295;51.024;7.000;2022-09-24T04:23:29;89.70;;;9.83;;
8514;SDS011;4295;51.024;7.000;2022-09-24T04:25:55;81.47;;;9.57;;
8514;SDS011;4295;51.024;7.000;2022-09-24T04:28:21;82.60;;;10.53;;
8514;SDS011;4295;51.024;7.000;2022-09-24T04:30:47;80.03;;;10.07;;
8514;SDS011;4295;51.024;7.000;2022-09-24T04:33:12;82.23;;;10.37;;
8514;SDS011;4295;51.024;7.000;2022-09-24T04:35:37;81.77;;;9.90;;
8514;SDS011;4295;51.024;7.000;2022-09-24T04:38:03;79.80;;;9.20;;
8514;SDS011;4295;51.024;7.000;2022-09-24T04:40:29;81.60;;;9.90;;
8514;SDS011;4295;51.024;7.000;2022-09-24T04:42:55;79.33;;;9.80;;
8514;SDS011;4295;51.024;7.000;2022-09-24T04:45:21;81.07;;;9.27;;
8514;SDS011;4295;51.024;7.000;2022-09-24T04:47:49;80.40;;;9.70;;
8514;SDS011;4295;51.024;7.000;2022-09-24T04:50:16;82.80;;;9.90;;
8514;SDS011;4295;51.024;7.000;2022-09-24T04:52:42;80.33;;;8.50;;
8514;SDS011;4295;51.024;7.000;2022-09-24T04:55:08;79.90;;;9.80;;
8514;SDS011;4295;51.024;7.000;2022-09-24T04:57:34;84.53;;;8.90;;
8514;SDS011;4295;51.024;7.000;2022-09-24T05:00:04;79.00;;;10.00;;
8514;SDS011;4295;51.024;7.000;2022-09-24T05:02:31;80.30;;;9.47;;
8514;SDS011;4295;51.024;7.000;2022-09-24T05:04:56;79.10;;;9.63;;
8514;SDS011;4295;51.024;7.000;2022-09-24T05:07:21;82.20;;;9.97;;
8514;SDS011;4295;51.024;7.000;2022-09-24T05:09:47;89.20;;;10.30;;
8514;SDS011;4295;51.024;7.000;2022-09-24T05:12:12;78.80;;;9.93;;
8514;SDS011;4295;51.024;7.000;2022-09-24T05:14:38;80.90;;;10.50;;
8514;SDS011;4295;51.024;7.000;2022-09-24T05:17:03;80.97;;;9.07;;
8514;SDS011;4295;51.024;7.000;2022-09-24T05:19:29;83.17;;;9.70;;
8514;SDS011;4295;51.024;7.000;2022-09-24T05:21:54;81.53;;;9.43;;
8514;SDS011;4295;51.024;7.000;2022-09-24T05:24:19;79.93;;;9.40;;
8514;SDS011;4295;51.024;7.000;2022-09-24T05:26:45;82.47;;;9.80;;
8514;SDS011;4295;51.024;7.000;2022-09-24T05:29:29;80.63;;;10.40;;
8514;SDS011;4295;51.024;7.000;2022-09-24T05:31:54;80.50;;;9.30;;
8514;SDS011;4295;51.024;7.000;2022-09-24T05:34:20;81.53;;;9.37;;
8514;SDS011;4295;51.024;7.000;2022-09-24T05:36:45;79.80;;;9.57;;
8514;SDS011;4295;51.024;7.000;2022-09-24T05:39:10;77.57;;;8.90;;
8514;SDS011;4295;51.024;7.000;2022-09-24T05:41:37;83.80;;;9.40;;
8514;SDS011;4295;51.024;7.000;2022-09-24T05:44:03;81.17;;;8.70;;
8514;SDS011;4295;51.024;7.000;2022-09-24T05:46:29;80.50;;;9.17;;
8514;SDS011;4295;51.024;7.000;2022-09-24T05:48:55;82.90;;;8.67;;
8514;SDS011;4295;51.024;7.000;2022-09-24T05:51:20;79.57;;;8.73;;
8514;SDS011;4295;51.024;7.000;2022-09-24T05:53:46;83.40;;;9.83;;
8514;SDS011;4295;51.024;7.000;2022-09-24T05:56:11;79.10;;;9.43;;
8514;SDS011;4295;51.024;7.000;2022-09-24T05:58:36;82.70;;;9.30;;
8514;SDS011;4295;51.024;7.000;2022-09-24T06:01:02;78.90;;;9.10;;
8514;SDS011;4295;51.024;7.000;2022-09-24T06:03:27;80.90;;;8.40;;
8514;SDS011;4295;51.024;7.000;2022-09-24T06:05:56;83.07;;;8.87;;
8514;SDS011;4295;51.024;7.000;2022-09-24T06:08:26;82.00;;;9.30;;
8514;SDS011;4295;51.024;7.000;2022-09-24T06:10:56;80.70;;;9.20;;
8514;SDS011;4295;51.024;7.000;2022-09-24T06:13:26;80.00;;;8.10;;
8514;SDS011;4295;51.024;7.000;2022-09-24T06:15:52;80.30;;;8.93;;
8514;SDS011;4295;51.024;7.000;2022-09-24T06:18:17;83.93;;;9.20;;
8514;SDS011;4295;51.024;7.000;2022-09-24T06:20:42;78.80;;;9.13;;
8514;SDS011;4295;51.024;7.000;2022-09-24T06:23:08;82.17;;;8.53;;
8514;SDS011;4295;51.024;7.000;2022-09-24T06:25:34;80.37;;;8.30;;
8514;SDS011;4295;51.024;7.000;2022-09-24T06:28:00;79.40;;;8.77;;
8514;SDS011;4295;51.024;7.000;2022-09-24T06:32:59;81.40;;;9.03;;
8514;SDS011;4295;51.024;7.000;2022-09-24T06:35:25;80.30;;;9.37;;
8514;SDS011;4295;51.024;7.000;2022-09-24T06:37:51;79.40;;;8.50;;
8514;SDS011;4295;51.024;7.000;2022-09-24T06:40:17;81.87;;;9.53;;
8514;SDS011;4295;51.024;7.000;2022-09-24T06:42:42;79.70;;;8.37;;
8514;SDS011;4295;51.024;7.000;2022-09-24T06:45:08;77.10;;;7.87;;
8514;SDS011;4295;51.024;7.000;2022-09-24T06:47:33;79.83;;;8.90;;
8514;SDS011;4295;51.024;7.000;2022-09-24T06:49:59;79.97;;;9.00;;
8514;SDS011;4295;51.024;7.000;2022-09-24T06:52:24;78.73;;;8.77;;
8514;SDS011;4295;51.024;7.000;2022-09-24T06:54:49;78.07;;;8.50;;
8514;SDS011;4295;51.024;7.000;2022-09-24T06:57:15;78.67;;;8.40;;
8514;SDS011;4295;51.024;7.000;2022-09-24T06:59:40;81.67;;;8.90;;
8514;SDS011;4295;51.024;7.000;2022-09-24T07:02:07;79.40;;;9.43;;
8514;SDS011;4295;51.024;7.000;2022-09-24T07:04:33;81.33;;;8.10;;
8514;SDS011;4295;51.024;7.000;2022-09-24T07:06:59;78.43;;;8.43;;
8514;SDS011;4295;51.024;7.000;2022-09-24T07:09:43;78.57;;;8.00;;
8514;SDS011;4295;51.024;7.000;2022-09-24T07:12:08;78.07;;;8.47;;
8514;SDS011;4295;51.024;7.000;2022-09-24T07:14:34;80.30;;;7.93;;
8514;SDS011;4295;51.024;7.000;2022-09-24T07:16:59;78.00;;;8.67;;
8514;SDS011;4295;51.024;7.000;2022-09-24T07:19:25;83.37;;;9.43;;
8514;SDS011;4295;51.024;7.000;2022-09-24T07:21:50;81.40;;;8.60;;
8514;SDS011;4295;51.024;7.000;2022-09-24T07:24:15;83.20;;;9.00;;
8514;SDS011;4295;51.024;7.000;2022-09-24T07:26:41;81.17;;;9.10;;
8514;SDS011;4295;51.024;7.000;2022-09-24T07:29:06;78.77;;;8.73;;
8514;SDS011;4295;51.024;7.000;2022-09-24T07:31:32;80.33;;;8.80;;
8514;SDS011;4295;51.024;7.000;2022-09-24T07:33:57;78.50;;;9.20;;
8514;SDS011;4295;51.024;7.000;2022-09-24T07:36:23;81.80;;;9.87;;
8514;SDS011;4295;51.024;7.000;2022-09-24T07:38:48;80.93;;;9.20;;
8514;SDS011;4295;51.024;7.000;2022-09-24T07:41:14;81.97;;;9.43;;
8514;SDS011;4295;51.024;7.000;2022-09-24T07:43:39;89.50;;;9.57;;
8514;SDS011;4295;51.024;7.000;2022-09-24T07:46:04;82.00;;;9.03;;
8514;SDS011;4295;51.024;7.000;2022-09-24T07:48:30;79.67;;;9.07;;
8514;SDS011;4295;51.024;7.000;2022-09-24T07:50:55;80.00;;;9.50;;
8514;SDS011;4295;51.024;7.000;2022-09-24T07:53:21;80.97;;;10.00;;
8514;SDS011;4295;51.024;7.000;2022-09-24T07:55:47;82.30;;;9.67;;
8514;SDS011;4295;51.024;7.000;2022-09-24T07:58:13;81.30;;;8.50;;
8514;SDS011;4295;51.024;7.000;2022-09-24T08:00:39;79.07;;;9.07;;
8514;SDS011;4295;51.024;7.000;2022-09-24T08:03:05;80.03;;;9.40;;
8514;SDS011;4295;51.024;7.000;2022-09-24T08:05:31;77.00;;;8.00;;
8514;SDS011;4295;51.024;7.000;2022-09-24T08:07:57;80.80;;;9.90;;
8514;SDS011;4295;51.024;7.000;2022-09-24T08:10:23;80.30;;;10.00;;
8514;SDS011;4295;51.024;7.000;2022-09-24T08:12:50;79.80;;;9.50;;
8514;SDS011;4295;51.024;7.000;2022-09-24T08:15:15;84.53;;;9.33;;
8514;SDS011;4295;51.024;7.000;2022-09-24T08:17:41;80.07;;;9.40;;
8514;SDS011;4295;51.024;7.000;2022-09-24T08:20:06;80.47;;;10.70;;
8514;SDS011;4295;51.024;7.000;2022-09-24T08:22:32;80.57;;;9.70;;
8514;SDS011;4295;51.024;7.000;2022-09-24T08:24:58;82.97;;;10.10;;
8514;SDS011;4295;51.024;7.000;2022-09-24T08:27:23;78.50;;;9.13;;
8514;SDS011;4295;51.024;7.000;2022-09-24T08:29:49;77.67;;;8.87;;
8514;SDS011;4295;51.024;7.000;2022-09-24T08:32:16;91.83;;;10.70;;
8514;SDS011;4295;51.024;7.000;2022-09-24T08:34:42;79.60;;;10.10;;
8514;SDS011;4295;51.024;7.000;2022-09-24T08:37:07;80.77;;;10.37;;
8514;SDS011;4295;51.024;7.000;2022-09-24T08:39:33;86.63;;;9.60;;
8514;SDS011;4295;51.024;7.000;2022-09-24T08:42:03;81.30;;;9.93;;
8514;SDS011;4295;51.024;7.000;2022-09-24T08:44:30;81.83;;;10.30;;
8514;SDS011;4295;51.024;7.000;2022-09-24T08:47:30;79.50;;;9.50;;
8514;SDS011;4295;51.024;7.000;2022-09-24T08:50:07;79.37;;;10.70;;
8514;SDS011;4295;51.024;7.000;2022-09-24T08:55:27;81.00;;;10.03;;
8514;SDS011;4295;51.024;7.000;2022-09-24T09:03:48;85.00;;;13.20;;
8514;SDS011;4295;51.024;7.000;2022-09-24T09:09:19;85.57;;;13.87;;
8514;SDS011;4295;51.024;7.000;2022-09-24T09:11:55;85.13;;;13.60;;
8514;SDS011;4295;51.024;7.000;2022-09-24T09:14:26;89.03;;;11.73;;
8514;SDS011;4295;51.024;7.000;2022-09-24T09:20:24;88.37;;;14.03;;
8514;SDS011;4295;51.024;7.000;2022-09-24T09:22:54;85.60;;;14.07;;
8514;SDS011;4295;51.024;7.000;2022-09-24T09:25:24;84.17;;;12.40;;
8514;SDS011;4295;51.024;7.000;2022-09-24T09:30:24;86.60;;;11.90;;
8514;SDS011;4295;51.024;7.000;2022-09-24T09:33:00;85.27;;;13.70;;
8514;SDS011;4295;51.024;7.000;2022-09-24T09:38:24;85.97;;;13.57;;
8514;SDS011;4295;51.024;7.000;2022-09-24T09:41:00;83.97;;;12.07;;
8514;SDS011;4295;51.024;7.000;2022-09-24T09:43:32;85.90;;;13.77;;
8514;SDS011;4295;51.024;7.000;2022-09-24T09:51:07;86.40;;;12.87;;
8514;SDS011;4295;51.024;7.000;2022-09-24T09:53:51;86.70;;;13.50;;
8514;SDS011;4295;51.024;7.000;2022-09-24T09:56:21;85.80;;;13.53;;
8514;SDS011;4295;51.024;7.000;2022-09-24T09:58:49;85.80;;;12.70;;
8514;SDS011;4295;51.024;7.000;2022-09-24T10:01:19;91.43;;;12.83;;
8514;SDS011;4295;51.024;7.000;2022-09-24T10:03:55;86.93;;;12.43;;
8514;SDS011;4295;51.024;7.000;2022-09-24T10:08:51;83.07;;;12.70;;
8514;SDS011;4295;51.024;7.000;2022-09-24T10:11:17;82.37;;;11.47;;
8514;SDS011;4295;51.024;7.000;2022-09-24T10:13:43;89.47;;;12.83;;
8514;SDS011;4295;51.024;7.000;2022-09-24T10:16:09;86.30;;;13.60;;
8514;SDS011;4295;51.024;7.000;2022-09-24T10:18:40;87.93;;;14.27;;
8514;SDS011;4295;51.024;7.000;2022-09-24T10:21:21;83.43;;;12.53;;
8514;SDS011;4295;51.024;7.000;2022-09-24T10:24:00;81.90;;;13.60;;
8514;SDS011;4295;51.024;7.000;2022-09-24T10:26:32;84.23;;;12.10;;
8514;SDS011;4295;51.024;7.000;2022-09-24T10:29:01;87.30;;;15.00;;
8514;SDS011;4295;51.024;7.000;2022-09-24T10:31:46;83.97;;;13.87;;
8514;SDS011;4295;51.024;7.000;2022-09-24T10:34:20;87.17;;;13.70;;
8514;SDS011;4295;51.024;7.000;2022-09-24T10:36:51;81.83;;;13.77;;
8514;SDS011;4295;51.024;7.000;2022-09-24T10:39:19;84.90;;;14.30;;
8514;SDS011;4295;51.024;7.000;2022-09-24T10:41:46;87.00;;;14.50;;
8514;SDS011;4295;51.024;7.000;2022-09-24T10:44:15;90.37;;;13.27;;
8514;SDS011;4295;51.024;7.000;2022-09-24T11:00:20;85.77;;;12.70;;
8514;SDS011;4295;51.024;7.000;2022-09-24T11:05:49;86.87;;;13.80;;
8514;SDS011;4295;51.024;7.000;2022-09-24T11:16:30;88.13;;;14.33;;
8514;SDS011;4295;51.024;7.000;2022-09-24T11:40:51;86.93;;;14.73;;
8514;SDS011;4295;51.024;7.000;2022-09-24T11:55:14;85.00;;;14.57;;
8514;SDS011;4295;51.024;7.000;2022-09-24T11:57:50;81.60;;;12.83;;
8514;SDS011;4295;51.024;7.000;2022-09-24T12:00:33;84.07;;;13.97;;
8514;SDS011;4295;51.024;7.000;2022-09-24T12:03:11;92.47;;;15.57;;
8514;SDS011;4295;51.024;7.000;2022-09-24T12:05:54;83.27;;;12.23;;
8514;SDS011;4295;51.024;7.000;2022-09-24T12:16:17;82.37;;;13.57;;
8514;SDS011;4295;51.024;7.000;2022-09-24T12:18:48;83.33;;;13.23;;
8514;SDS011;4295;51.024;7.000;2022-09-24T12:21:28;83.00;;;13.07;;
8514;SDS011;4295;51.024;7.000;2022-09-24T12:24:00;79.40;;;11.70;;
8514;SDS011;4295;51.024;7.000;2022-09-24T12:26:29;83.00;;;11.90;;
8514;SDS011;4295;51.024;7.000;2022-09-24T12:32:10;84.20;;;12.97;;
8514;SDS011;4295;51.024;7.000;2022-09-24T12:35:09;85.73;;;13.10;;
8514;SDS011;4295;51.024;7.000;2022-09-24T12:37:49;82.30;;;11.63;;
8514;SDS011;4295;51.024;7.000;2022-09-24T12:40:25;81.27;;;12.20;;
8514;SDS011;4295;51.024;7.000;2022-09-24T12:42:56;83.53;;;12.70;;
8514;SDS011;4295;51.024;7.000;2022-09-24T12:45:24;86.87;;;12.83;;
8514;SDS011;4295;51.024;7.000;2022-09-24T12:47:52;83.60;;;12.60;;
8514;SDS011;4295;51.024;7.000;2022-09-24T12:50:25;83.30;;;11.90;;
8514;SDS011;4295;51.024;7.000;2022-09-24T12:52:52;82.30;;;12.20;;
8514;SDS011;4295;51.024;7.000;2022-09-24T12:55:25;81.17;;;12.10;;
8514;SDS011;4295;51.024;7.000;2022-09-24T12:57:54;80.50;;;12.03;;
8514;SDS011;4295;51.024;7.000;2022-09-24T13:00:33;82.27;;;11.80;;
8514;SDS011;4295;51.024;7.000;2022-09-24T13:02:59;77.97;;;10.47;;
8514;SDS011;4295;51.024;7.000;2022-09-24T13:05:26;80.97;;;11.03;;
8514;SDS011;4295;51.024;7.000;2022-09-24T13:08:34;80.50;;;10.40;;
8514;SDS011;4295;51.024;7.000;2022-09-24T13:10:58;80.50;;;10.03;;
8514;SDS011;4295;51.024;7.000;2022-09-24T13:13:30;82.07;;;10.20;;
8514;SDS011;4295;51.024;7.000;2022-09-24T13:16:01;79.43;;;10.23;;
8514;SDS011;4295;51.024;7.000;2022-09-24T13:18:29;80.70;;;10.60;;
8514;SDS011;4295;51.024;7.000;2022-09-24T13:21:04;78.47;;;10.57;;
8514;SDS011;4295;51.024;7.000;2022-09-24T13:26:04;78.07;;;11.30;;
8514;SDS011;4295;51.024;7.000;2022-09-24T13:28:32;81.77;;;10.80;;
8514;SDS011;4295;51.024;7.000;2022-09-24T13:33:47;80.87;;;11.50;;
8514;SDS011;4295;51.024;7.000;2022-09-24T13:36:21;79.67;;;10.17;;
8514;SDS011;4295;51.024;7.000;2022-09-24T13:38:54;79.77;;;10.90;;
8514;SDS011;4295;51.024;7.000;2022-09-24T13:41:35;81.00;;;10.60;;
8514;SDS011;4295;51.024;7.000;2022-09-24T13:47:03;80.17;;;11.20;;
8514;SDS011;4295;51.024;7.000;2022-09-24T13:49:36;81.40;;;11.33;;
8514;SDS011;4295;51.024;7.000;2022-09-24T13:55:18;83.87;;;12.33;;
8514;SDS011;4295;51.024;7.000;2022-09-24T13:57:45;81.60;;;10.53;;
8514;SDS011;4295;51.024;7.000;2022-09-24T14:00:15;81.00;;;11.90;;
8514;SDS011;4295;51.024;7.000;2022-09-24T14:02:50;81.67;;;11.93;;
8514;SDS011;4295;51.024;7.000;2022-09-24T14:05:22;82.80;;;12.10;;
8514;SDS011;4295;51.024;7.000;2022-09-24T14:07:52;83.80;;;12.70;;
8514;SDS011;4295;51.024;7.000;2022-09-24T14:10:20;81.90;;;12.27;;
8514;SDS011;4295;51.024;7.000;2022-09-24T14:12:57;80.30;;;13.07;;
8514;SDS011;4295;51.024;7.000;2022-09-24T14:18:33;83.23;;;13.00;;
8514;SDS011;4295;51.024;7.000;2022-09-24T14:26:17;81.27;;;11.67;;
8514;SDS011;4295;51.024;7.000;2022-09-24T14:28:52;82.57;;;12.53;;
8514;SDS011;4295;51.024;7.000;2022-09-24T14:31:18;82.57;;;11.60;;
8514;SDS011;4295;51.024;7.000;2022-09-24T14:33:44;84.07;;;13.13;;
8514;SDS011;4295;51.024;7.000;2022-09-24T14:36:10;79.90;;;11.77;;
8514;SDS011;4295;51.024;7.000;2022-09-24T14:38:45;82.57;;;12.40;;
8514;SDS011;4295;51.024;7.000;2022-09-24T14:41:22;82.93;;;12.43;;
8514;SDS011;4295;51.024;7.000;2022-09-24T14:43:51;80.63;;;11.70;;
8514;SDS011;4295;51.024;7.000;2022-09-24T14:46:23;79.77;;;11.27;;
8514;SDS011;4295;51.024;7.000;2022-09-24T14:49:02;83.00;;;12.17;;
8514;SDS011;4295;51.024;7.000;2022-09-24T14:51:49;80.80;;;11.50;;
8514;SDS011;4295;51.024;7.000;2022-09-24T14:56:47;79.60;;;11.50;;
8514;SDS011;4295;51.024;7.000;2022-09-24T14:59:13;80.20;;;11.47;;
8514;SDS011;4295;51.024;7.000;2022-09-24T15:01:40;86.10;;;11.97;;
8514;SDS011;4295;51.024;7.000;2022-09-24T15:04:15;79.80;;;11.73;;
8514;SDS011;4295;51.024;7.000;2022-09-24T15:06:44;82.50;;;11.40;;
8514;SDS011;4295;51.024;7.000;2022-09-24T15:09:27;78.27;;;10.80;;
8514;SDS011;4295;51.024;7.000;2022-09-24T15:11:54;78.97;;;10.03;;
8514;SDS011;4295;51.024;7.000;2022-09-24T15:14:32;78.17;;;10.23;;
8514;SDS011;4295;51.024;7.000;2022-09-24T15:17:59;84.03;;;12.00;;
8514;SDS011;4295;51.024;7.000;2022-09-24T15:19:57;81.20;;;11.10;;
8514;SDS011;4295;51.024;7.000;2022-09-24T15:22:26;81.80;;;10.60;;
8514;SDS011;4295;51.024;7.000;2022-09-24T15:24:53;78.87;;;10.37;;
8514;SDS011;4295;51.024;7.000;2022-09-24T15:27:23;83.07;;;11.53;;
8514;SDS011;4295;51.024;7.000;2022-09-24T15:29:56;82.50;;;11.43;;
8514;SDS011;4295;51.024;7.000;2022-09-24T15:32:24;83.43;;;11.90;;
8514;SDS011;4295;51.024;7.000;2022-09-24T15:34:55;84.73;;;11.80;;
8514;SDS011;4295;51.024;7.000;2022-09-24T15:37:21;79.60;;;11.50;;
8514;SDS011;4295;51.024;7.000;2022-09-24T15:39:49;82.47;;;12.10;;
8514;SDS011;4295;51.024;7.000;2022-09-24T15:42:16;85.60;;;12.20;;
8514;SDS011;4295;51.024;7.000;2022-09-24T15:44:43;80.47;;;11.27;;
8514;SDS011;4295;51.024;7.000;2022-09-24T15:47:09;82.20;;;12.17;;
8514;SDS011;4295;51.024;7.000;2022-09-24T15:49:35;83.83;;;11.83;;
8514;SDS011;4295;51.024;7.000;2022-09-24T15:52:02;82.53;;;11.50;;
8514;SDS011;4295;51.024;7.000;2022-09-24T15:54:31;82.77;;;11.93;;
8514;SDS011;4295;51.024;7.000;2022-09-24T15:56:57;85.03;;;13.10;;
8514;SDS011;4295;51.024;7.000;2022-09-24T15:59:22;80.80;;;11.27;;
8514;SDS011;4295;51.024;7.000;2022-09-24T16:01:48;85.10;;;11.90;;
8514;SDS011;4295;51.024;7.000;2022-09-24T16:04:17;84.47;;;12.07;;
8514;SDS011;4295;51.024;7.000;2022-09-24T16:06:42;81.90;;;12.33;;
8514;SDS011;4295;51.024;7.000;2022-09-24T16:09:08;83.60;;;13.47;;
8514;SDS011;4295;51.024;7.000;2022-09-24T16:11:33;83.07;;;13.60;;
8514;SDS011;4295;51.024;7.000;2022-09-24T16:13:59;82.90;;;12.50;;
8514;SDS011;4295;51.024;7.000;2022-09-24T16:16:24;84.50;;;13.30;;
8514;SDS011;4295;51.024;7.000;2022-09-24T16:18:49;86.47;;;12.80;;
8514;SDS011;4295;51.024;7.000;2022-09-24T16:21:16;84.33;;;14.37;;
8514;SDS011;4295;51.024;7.000;2022-09-24T16:23:41;84.57;;;13.20;;
8514;SDS011;4295;51.024;7.000;2022-09-24T16:26:07;82.47;;;11.93;;
8514;SDS011;4295;51.024;7.000;2022-09-24T16:28:32;83.20;;;13.00;;
8514;SDS011;4295;51.024;7.000;2022-09-24T16:30:57;81.47;;;11.77;;
8514;SDS011;4295;51.024;7.000;2022-09-24T16:33:24;82.80;;;12.40;;
8514;SDS011;4295;51.024;7.000;2022-09-24T16:35:49;82.43;;;12.50;;
8514;SDS011;4295;51.024;7.000;2022-09-24T16:38:15;80.67;;;11.87;;
8514;SDS011;4295;51.024;7.000;2022-09-24T16:40:41;82.47;;;11.70;;
8514;SDS011;4295;51.024;7.000;2022-09-24T16:43:07;82.00;;;12.40;;
8514;SDS011;4295;51.024;7.000;2022-09-24T16:45:32;80.80;;;11.80;;
8514;SDS011;4295;51.024;7.000;2022-09-24T16:47:58;82.60;;;11.50;;
8514;SDS011;4295;51.024;7.000;2022-09-24T16:50:23;80.87;;;12.23;;
8514;SDS011;4295;51.024;7.000;2022-09-24T16:52:49;85.17;;;11.40;;
8514;SDS011;4295;51.024;7.000;2022-09-24T16:55:18;81.30;;;11.90;;
8514;SDS011;4295;51.024;7.000;2022-09-24T16:57:44;81.70;;;11.10;;
8514;SDS011;4295;51.024;7.000;2022-09-24T17:00:10;79.67;;;11.10;;
8514;SDS011;4295;51.024;7.000;2022-09-24T17:02:36;81.73;;;10.90;;
8514;SDS011;4295;51.024;7.000;2022-09-24T17:05:01;81.67;;;12.13;;
8514;SDS011;4295;51.024;7.000;2022-09-24T17:07:30;83.63;;;11.37;;
8514;SDS011;4295;51.024;7.000;2022-09-24T17:09:56;81.80;;;12.87;;
8514;SDS011;4295;51.024;7.000;2022-09-24T17:12:38;81.67;;;12.80;;
8514;SDS011;4295;51.024;7.000;2022-09-24T17:15:05;81.57;;;11.77;;
8514;SDS011;4295;51.024;7.000;2022-09-24T17:17:31;83.00;;;12.93;;
8514;SDS011;4295;51.024;7.000;2022-09-24T17:19:56;89.07;;;12.67;;
8514;SDS011;4295;51.024;7.000;2022-09-24T17:22:22;82.50;;;12.77;;
8514;SDS011;4295;51.024;7.000;2022-09-24T17:24:47;83.87;;;13.43;;
8514;SDS011;4295;51.024;7.000;2022-09-24T17:27:13;82.27;;;13.00;;
8514;SDS011;4295;51.024;7.000;2022-09-24T17:29:38;87.80;;;13.93;;
8514;SDS011;4295;51.024;7.000;2022-09-24T17:32:03;86.20;;;13.20;;